Delhi, LA (71232)

1:58 PM CST on February 08, 2016 (GMT -0600)
Ruff. Rd. | | Change Station
CLOSE
Current Station
Personal Weather Station
Location: Rayville, LA
Elevation: 85 ft
Nearby Weather Stations
Active Advisory: Wind Advisory Active Notice: Public Information Statement

Elev 85 ft 32.57 °N, 91.64 °W | Updated 22 seconds ago

Clear
Clear
52.3 °F
Feels Like 52.3 °F
N
9.6
Wind Variable Wind from West
Gusts 12.3 mph

Today
High -- | Low -- °F
--% Chance of Precip.
Yesterday
High -- | Low -- °F
Precip. -- in
Pressure 30.06 in
Visibility 10.0 miles
Clouds Scattered Clouds 8500 ft
Dew Point 17 °F
Humidity 24%
Rainfall 0.00 in
Snow Depth Not available.
6:55 AM 5:45 PM
New Moon, 0% visible
METAR KTVR 081953Z AUTO 28015G27KT 10SM SCT085 11/M08 A3004 RMK AO2 PK WND 31027/1945 SLP180 T01111078
Pressure 30.06 in
Visibility 10.0 miles
Clouds Scattered Clouds 8500 ft
Dew Point 17 °F
Humidity 24%
Rainfall 0.00 in
Snow Depth Not available.
6:55 AM 5:45 PM
New Moon, 0% visible
METAR KTVR 081953Z AUTO 28015G27KT 10SM SCT085 11/M08 A3004 RMK AO2 PK WND 31027/1945 SLP180 T01111078

10-Day Weather Forecast

Almanac

Astronomy

Feb. 08, 2016 Rise Set
Actual Time
Civil Twilight
Nautical Twilight
Astronomical Twilight
Moon
Length of Visible Light
Length of Day
Tomorrow will be .
, % of the Moon is Illuminated

Today's Extremes

State Highs State Lows

Community

WunderPhotos

Upload Photos

1,891,499 photos uploaded!

WunderBlog® & News

Nearby

Air Quality

  Air Quality AQ Index Pollutant
Not available.

Snow Depth

Station Depth Elevation

Earthquake Activity

City Distance Mag. Time & Date
Minimum magnitude displayed is 2.5.

Coastal Water Temperatures

Place Temperature

Stations

Nearby Weather Stations

Station Location Temp. Windchill Dew Point Humidity Wind Precip. Elev Updated Type
                   

Watches & Warnings

Wind Advisory
Issued: 11:26 AM CST Feb. 8, 2016 – National Weather Service

... Wind Advisory remains in effect until 6 PM CST this evening...

* timing... until 6 PM

* winds... 25 to 35 mph with gusts from 40 to 45 mph

* impacts... these winds can knock down rotten trees and affect
travel in high profile vehicles

Precautionary/preparedness actions...

A Wind Advisory means that winds of 25 to 35 mph are expected.
Winds this strong can make driving difficult... especially for
high profile vehicles. Use extra caution when driving.

Wind gusts of 40 to 45 mph can bring down large limbs and rotted
trees causing serious injury and property damage. Exercise
caution when outdoors during these conditions.